sensor_id;sensor_type;location;lat;lon;timestamp;P1;durP1;ratioP1;P2;durP2;ratioP2
15408;SDS011;7803;48.130;13.788;2022-10-18T00:01:53;11.43;;;10.32;;
15408;SDS011;7803;48.130;13.788;2022-10-18T00:04:55;11.27;;;10.27;;
15408;SDS011;7803;48.130;13.788;2022-10-18T00:07:59;10.75;;;9.75;;
15408;SDS011;7803;48.130;13.788;2022-10-18T00:11:01;11.48;;;10.20;;
15408;SDS011;7803;48.130;13.788;2022-10-18T00:14:03;11.57;;;10.48;;
15408;SDS011;7803;48.130;13.788;2022-10-18T00:17:05;11.18;;;10.18;;
15408;SDS011;7803;48.130;13.788;2022-10-18T00:20:07;11.30;;;10.30;;
15408;SDS011;7803;48.130;13.788;2022-10-18T00:23:12;11.13;;;10.10;;
15408;SDS011;7803;48.130;13.788;2022-10-18T00:26:14;11.48;;;10.38;;
15408;SDS011;7803;48.130;13.788;2022-10-18T00:29:18;11.35;;;10.35;;
15408;SDS011;7803;48.130;13.788;2022-10-18T00:32:20;11.70;;;10.60;;
15408;SDS011;7803;48.130;13.788;2022-10-18T00:35:22;10.63;;;9.63;;
15408;SDS011;7803;48.130;13.788;2022-10-18T00:38:26;11.65;;;10.55;;
15408;SDS011;7803;48.130;13.788;2022-10-18T00:41:29;11.18;;;10.10;;
15408;SDS011;7803;48.130;13.788;2022-10-18T00:48:04;11.23;;;10.13;;
15408;SDS011;7803;48.130;13.788;2022-10-18T00:51:06;12.32;;;11.23;;
15408;SDS011;7803;48.130;13.788;2022-10-18T00:54:09;11.55;;;10.45;;
15408;SDS011;7803;48.130;13.788;2022-10-18T00:57:12;10.57;;;9.63;;
15408;SDS011;7803;48.130;13.788;2022-10-18T01:00:15;11.05;;;10.02;;
15408;SDS011;7803;48.130;13.788;2022-10-18T01:03:17;11.00;;;10.00;;
15408;SDS011;7803;48.130;13.788;2022-10-18T01:06:19;11.20;;;10.20;;
15408;SDS011;7803;48.130;13.788;2022-10-18T01:09:24;11.07;;;10.07;;
15408;SDS011;7803;48.130;13.788;2022-10-18T01:12:39;11.00;;;10.00;;
15408;SDS011;7803;48.130;13.788;2022-10-18T01:15:52;10.73;;;9.77;;
15408;SDS011;7803;48.130;13.788;2022-10-18T01:18:59;10.95;;;9.95;;
15408;SDS011;7803;48.130;13.788;2022-10-18T01:22:06;10.50;;;9.60;;
15408;SDS011;7803;48.130;13.788;2022-10-18T01:25:19;10.82;;;9.82;;
15408;SDS011;7803;48.130;13.788;2022-10-18T01:28:34;10.82;;;9.82;;
15408;SDS011;7803;48.130;13.788;2022-10-18T01:31:50;10.57;;;9.63;;
15408;SDS011;7803;48.130;13.788;2022-10-18T01:34:58;10.70;;;9.70;;
15408;SDS011;7803;48.130;13.788;2022-10-18T01:38:05;11.02;;;10.02;;
15408;SDS011;7803;48.130;13.788;2022-10-18T01:41:11;11.25;;;10.25;;
15408;SDS011;7803;48.130;13.788;2022-10-18T01:44:15;10.77;;;9.77;;
15408;SDS011;7803;48.130;13.788;2022-10-18T01:47:20;10.02;;;9.13;;
15408;SDS011;7803;48.130;13.788;2022-10-18T01:50:27;10.38;;;9.48;;
15408;SDS011;7803;48.130;13.788;2022-10-18T01:53:31;10.60;;;9.60;;
15408;SDS011;7803;48.130;13.788;2022-10-18T01:56:36;10.55;;;9.55;;
15408;SDS011;7803;48.130;13.788;2022-10-18T01:59:45;10.32;;;9.43;;
15408;SDS011;7803;48.130;13.788;2022-10-18T02:02:59;10.32;;;9.43;;
15408;SDS011;7803;48.130;13.788;2022-10-18T02:06:06;9.68;;;8.88;;
15408;SDS011;7803;48.130;13.788;2022-10-18T02:09:17;9.70;;;8.80;;
15408;SDS011;7803;48.130;13.788;2022-10-18T02:12:23;9.98;;;9.18;;
15408;SDS011;7803;48.130;13.788;2022-10-18T02:15:27;9.95;;;9.05;;
15408;SDS011;7803;48.130;13.788;2022-10-18T02:18:35;9.77;;;8.90;;
15408;SDS011;7803;48.130;13.788;2022-10-18T02:21:40;9.48;;;8.57;;
15408;SDS011;7803;48.130;13.788;2022-10-18T02:24:44;9.05;;;8.20;;
15408;SDS011;7803;48.130;13.788;2022-10-18T02:27:50;10.07;;;9.18;;
15408;SDS011;7803;48.130;13.788;2022-10-18T02:30:55;10.00;;;9.10;;
15408;SDS011;7803;48.130;13.788;2022-10-18T02:34:05;9.43;;;8.45;;
15408;SDS011;7803;48.130;13.788;2022-10-18T02:37:13;9.60;;;8.70;;
15408;SDS011;7803;48.130;13.788;2022-10-18T02:40:16;9.80;;;9.00;;
15408;SDS011;7803;48.130;13.788;2022-10-18T02:43:19;9.18;;;8.38;;
15408;SDS011;7803;48.130;13.788;2022-10-18T02:46:23;9.13;;;8.32;;
15408;SDS011;7803;48.130;13.788;2022-10-18T02:49:27;9.05;;;8.23;;
15408;SDS011;7803;48.130;13.788;2022-10-18T02:52:29;9.30;;;8.50;;
15408;SDS011;7803;48.130;13.788;2022-10-18T02:55:31;9.68;;;8.77;;
15408;SDS011;7803;48.130;13.788;2022-10-18T02:58:33;9.45;;;8.55;;
15408;SDS011;7803;48.130;13.788;2022-10-18T03:01:35;9.02;;;8.25;;
15408;SDS011;7803;48.130;13.788;2022-10-18T03:04:39;8.95;;;8.20;;
15408;SDS011;7803;48.130;13.788;2022-10-18T03:07:41;9.30;;;8.50;;
15408;SDS011;7803;48.130;13.788;2022-10-18T03:10:43;8.65;;;7.85;;
15408;SDS011;7803;48.130;13.788;2022-10-18T03:13:45;8.80;;;8.00;;
15408;SDS011;7803;48.130;13.788;2022-10-18T03:16:47;8.98;;;8.07;;
15408;SDS011;7803;48.130;13.788;2022-10-18T03:19:50;8.45;;;7.75;;
15408;SDS011;7803;48.130;13.788;2022-10-18T03:22:52;8.85;;;8.05;;
15408;SDS011;7803;48.130;13.788;2022-10-18T03:25:54;8.90;;;8.10;;
15408;SDS011;7803;48.130;13.788;2022-10-18T03:28:56;8.43;;;7.70;;
15408;SDS011;7803;48.130;13.788;2022-10-18T03:31:58;7.95;;;7.25;;
15408;SDS011;7803;48.130;13.788;2022-10-18T03:35:02;9.20;;;8.25;;
15408;SDS011;7803;48.130;13.788;2022-10-18T03:38:04;7.97;;;7.28;;
15408;SDS011;7803;48.130;13.788;2022-10-18T03:41:06;8.48;;;7.78;;
15408;SDS011;7803;48.130;13.788;2022-10-18T03:44:08;7.78;;;7.13;;
15408;SDS011;7803;48.130;13.788;2022-10-18T03:47:10;8.35;;;7.65;;
15408;SDS011;7803;48.130;13.788;2022-10-18T03:50:14;7.97;;;7.18;;
15408;SDS011;7803;48.130;13.788;2022-10-18T03:53:16;8.38;;;7.57;;
15408;SDS011;7803;48.130;13.788;2022-10-18T03:56:18;7.70;;;7.00;;
15408;SDS011;7803;48.130;13.788;2022-10-18T03:59:20;7.90;;;7.20;;
15408;SDS011;7803;48.130;13.788;2022-10-18T04:02:22;7.47;;;6.78;;
15408;SDS011;7803;48.130;13.788;2022-10-18T04:05:27;8.07;;;7.38;;
15408;SDS011;7803;48.130;13.788;2022-10-18T04:08:30;7.10;;;6.50;;
15408;SDS011;7803;48.130;13.788;2022-10-18T04:11:32;7.20;;;6.60;;
15408;SDS011;7803;48.130;13.788;2022-10-18T04:14:34;7.93;;;7.22;;
15408;SDS011;7803;48.130;13.788;2022-10-18T04:17:36;7.60;;;6.93;;
15408;SDS011;7803;48.130;13.788;2022-10-18T04:20:40;6.93;;;6.32;;
15408;SDS011;7803;48.130;13.788;2022-10-18T04:23:42;6.90;;;6.30;;
15408;SDS011;7803;48.130;13.788;2022-10-18T04:26:44;7.50;;;6.80;;
15408;SDS011;7803;48.130;13.788;2022-10-18T04:29:46;7.35;;;6.75;;
15408;SDS011;7803;48.130;13.788;2022-10-18T04:32:48;6.75;;;6.22;;
15408;SDS011;7803;48.130;13.788;2022-10-18T04:35:51;6.70;;;6.10;;
15408;SDS011;7803;48.130;13.788;2022-10-18T04:38:54;7.05;;;6.45;;
15408;SDS011;7803;48.130;13.788;2022-10-18T04:41:56;6.68;;;6.07;;
15408;SDS011;7803;48.130;13.788;2022-10-18T04:44:58;6.85;;;6.25;;
15408;SDS011;7803;48.130;13.788;2022-10-18T04:48:00;6.40;;;5.88;;
15408;SDS011;7803;48.130;13.788;2022-10-18T04:51:03;6.90;;;6.30;;
15408;SDS011;7803;48.130;13.788;2022-10-18T04:54:06;6.32;;;5.82;;
15408;SDS011;7803;48.130;13.788;2022-10-18T04:57:07;6.38;;;5.88;;
15408;SDS011;7803;48.130;13.788;2022-10-18T05:00:10;6.13;;;5.57;;
15408;SDS011;7803;48.130;13.788;2022-10-18T05:03:13;6.53;;;5.93;;
15408;SDS011;7803;48.130;13.788;2022-10-18T05:06:17;6.00;;;5.50;;
15408;SDS011;7803;48.130;13.788;2022-10-18T05:09:19;6.25;;;5.72;;
15408;SDS011;7803;48.130;13.788;2022-10-18T05:12:23;6.80;;;6.10;;
15408;SDS011;7803;48.130;13.788;2022-10-18T05:15:25;6.57;;;5.97;;
15408;SDS011;7803;48.130;13.788;2022-10-18T05:18:27;6.75;;;6.15;;
15408;SDS011;7803;48.130;13.788;2022-10-18T05:21:31;5.90;;;5.30;;
15408;SDS011;7803;48.130;13.788;2022-10-18T05:24:33;6.22;;;5.63;;
15408;SDS011;7803;48.130;13.788;2022-10-18T05:27:35;5.80;;;5.30;;
15408;SDS011;7803;48.130;13.788;2022-10-18T05:30:37;6.20;;;5.60;;
15408;SDS011;7803;48.130;13.788;2022-10-18T05:33:39;6.05;;;5.50;;
15408;SDS011;7803;48.130;13.788;2022-10-18T05:36:43;6.05;;;5.53;;
15408;SDS011;7803;48.130;13.788;2022-10-18T05:39:45;5.97;;;5.47;;
15408;SDS011;7803;48.130;13.788;2022-10-18T05:42:50;6.13;;;5.53;;
15408;SDS011;7803;48.130;13.788;2022-10-18T05:45:52;5.70;;;5.18;;
15408;SDS011;7803;48.130;13.788;2022-10-18T05:48:54;5.22;;;4.82;;
15408;SDS011;7803;48.130;13.788;2022-10-18T05:51:57;6.25;;;5.50;;
15408;SDS011;7803;48.130;13.788;2022-10-18T05:54:59;5.70;;;5.20;;
15408;SDS011;7803;48.130;13.788;2022-10-18T05:58:01;5.78;;;5.28;;
15408;SDS011;7803;48.130;13.788;2022-10-18T06:01:04;5.25;;;4.85;;
15408;SDS011;7803;48.130;13.788;2022-10-18T06:04:06;6.55;;;5.55;;
15408;SDS011;7803;48.130;13.788;2022-10-18T06:07:10;5.78;;;5.28;;
15408;SDS011;7803;48.130;13.788;2022-10-18T06:10:12;5.80;;;5.13;;
15408;SDS011;7803;48.130;13.788;2022-10-18T06:13:14;5.20;;;4.70;;
15408;SDS011;7803;48.130;13.788;2022-10-18T06:16:17;5.72;;;4.88;;
15408;SDS011;7803;48.130;13.788;2022-10-18T06:19:20;5.10;;;4.57;;
15408;SDS011;7803;48.130;13.788;2022-10-18T06:22:24;5.30;;;4.90;;
15408;SDS011;7803;48.130;13.788;2022-10-18T06:25:26;5.32;;;4.82;;
15408;SDS011;7803;48.130;13.788;2022-10-18T06:28:28;5.25;;;4.75;;
15408;SDS011;7803;48.130;13.788;2022-10-18T06:31:31;5.25;;;4.78;;
15408;SDS011;7803;48.130;13.788;2022-10-18T06:34:33;5.30;;;4.80;;
15408;SDS011;7803;48.130;13.788;2022-10-18T06:37:36;4.93;;;4.53;;
15408;SDS011;7803;48.130;13.788;2022-10-18T06:40:38;5.82;;;5.30;;
15408;SDS011;7803;48.130;13.788;2022-10-18T06:43:40;5.07;;;4.68;;
15408;SDS011;7803;48.130;13.788;2022-10-18T06:46:43;5.00;;;4.60;;
15408;SDS011;7803;48.130;13.788;2022-10-18T06:49:46;5.00;;;4.50;;
15408;SDS011;7803;48.130;13.788;2022-10-18T06:52:51;4.82;;;4.35;;
15408;SDS011;7803;48.130;13.788;2022-10-18T06:55:57;4.55;;;4.15;;
15408;SDS011;7803;48.130;13.788;2022-10-18T06:59:00;4.50;;;4.10;;
15408;SDS011;7803;48.130;13.788;2022-10-18T07:02:02;4.97;;;4.47;;
15408;SDS011;7803;48.130;13.788;2022-10-18T07:05:05;5.07;;;4.63;;
15408;SDS011;7803;48.130;13.788;2022-10-18T07:08:08;5.00;;;4.60;;
15408;SDS011;7803;48.130;13.788;2022-10-18T07:14:15;4.75;;;4.35;;
15408;SDS011;7803;48.130;13.788;2022-10-18T07:17:17;4.43;;;4.13;;
15408;SDS011;7803;48.130;13.788;2022-10-18T07:20:19;4.57;;;4.18;;
15408;SDS011;7803;48.130;13.788;2022-10-18T07:23:22;4.75;;;4.35;;
15408;SDS011;7803;48.130;13.788;2022-10-18T07:26:25;4.30;;;3.90;;
15408;SDS011;7803;48.130;13.788;2022-10-18T07:29:28;4.57;;;4.18;;
15408;SDS011;7803;48.130;13.788;2022-10-18T07:32:30;4.40;;;4.00;;
15408;SDS011;7803;48.130;13.788;2022-10-18T07:35:33;4.10;;;3.78;;
15408;SDS011;7803;48.130;13.788;2022-10-18T07:38:36;4.93;;;4.53;;
15408;SDS011;7803;48.130;13.788;2022-10-18T07:41:39;4.28;;;3.88;;
15408;SDS011;7803;48.130;13.788;2022-10-18T07:44:43;4.40;;;4.00;;
15408;SDS011;7803;48.130;13.788;2022-10-18T07:47:45;4.50;;;4.10;;
15408;SDS011;7803;48.130;13.788;2022-10-18T07:50:47;4.20;;;3.80;;
15408;SDS011;7803;48.130;13.788;2022-10-18T07:53:51;4.50;;;4.10;;
15408;SDS011;7803;48.130;13.788;2022-10-18T07:56:53;4.22;;;3.83;;
15408;SDS011;7803;48.130;13.788;2022-10-18T07:59:55;4.18;;;3.78;;
15408;SDS011;7803;48.130;13.788;2022-10-18T08:02:57;4.13;;;3.83;;
15408;SDS011;7803;48.130;13.788;2022-10-18T08:05:59;4.13;;;3.72;;
15408;SDS011;7803;48.130;13.788;2022-10-18T08:09:03;3.83;;;3.53;;
15408;SDS011;7803;48.130;13.788;2022-10-18T08:12:06;4.57;;;3.80;;
15408;SDS011;7803;48.130;13.788;2022-10-18T08:15:09;4.20;;;3.90;;
15408;SDS011;7803;48.130;13.788;2022-10-18T08:18:11;3.78;;;3.47;;
15408;SDS011;7803;48.130;13.788;2022-10-18T08:21:14;3.90;;;3.60;;
15408;SDS011;7803;48.130;13.788;2022-10-18T08:24:18;4.07;;;3.67;;
15408;SDS011;7803;48.130;13.788;2022-10-18T08:27:20;3.80;;;3.47;;
15408;SDS011;7803;48.130;13.788;2022-10-18T08:30:23;4.10;;;3.80;;
15408;SDS011;7803;48.130;13.788;2022-10-18T08:33:25;3.88;;;3.53;;
15408;SDS011;7803;48.130;13.788;2022-10-18T08:36:27;4.10;;;3.70;;
15408;SDS011;7803;48.130;13.788;2022-10-18T08:39:31;4.82;;;4.05;;
15408;SDS011;7803;48.130;13.788;2022-10-18T08:42:37;4.03;;;3.65;;
15408;SDS011;7803;48.130;13.788;2022-10-18T08:46:00;4.95;;;4.00;;
15408;SDS011;7803;48.130;13.788;2022-10-18T08:49:02;3.85;;;3.55;;
15408;SDS011;7803;48.130;13.788;2022-10-18T08:52:09;3.35;;;3.05;;
15408;SDS011;7803;48.130;13.788;2022-10-18T08:55:19;3.90;;;3.60;;
15408;SDS011;7803;48.130;13.788;2022-10-18T08:58:25;3.67;;;3.38;;
15408;SDS011;7803;48.130;13.788;2022-10-18T09:01:33;3.38;;;3.08;;
15408;SDS011;7803;48.130;13.788;2022-10-18T09:04:49;3.63;;;3.33;;
15408;SDS011;7803;48.130;13.788;2022-10-18T09:08:06;3.80;;;3.50;;
15408;SDS011;7803;48.130;13.788;2022-10-18T09:11:28;3.33;;;3.03;;
15408;SDS011;7803;48.130;13.788;2022-10-18T09:14:51;3.50;;;3.20;;
15408;SDS011;7803;48.130;13.788;2022-10-18T09:18:17;3.72;;;3.40;;
15408;SDS011;7803;48.130;13.788;2022-10-18T09:21:35;3.60;;;3.13;;
15408;SDS011;7803;48.130;13.788;2022-10-18T09:24:45;3.50;;;3.20;;
15408;SDS011;7803;48.130;13.788;2022-10-18T09:27:58;3.40;;;3.10;;
15408;SDS011;7803;48.130;13.788;2022-10-18T09:31:17;3.35;;;3.05;;
15408;SDS011;7803;48.130;13.788;2022-10-18T09:34:24;3.20;;;2.95;;
15408;SDS011;7803;48.130;13.788;2022-10-18T09:37:31;3.35;;;3.08;;
15408;SDS011;7803;48.130;13.788;2022-10-18T09:40:46;3.67;;;3.38;;
15408;SDS011;7803;48.130;13.788;2022-10-18T09:43:56;3.40;;;3.10;;
15408;SDS011;7803;48.130;13.788;2022-10-18T09:47:01;3.55;;;3.25;;
15408;SDS011;7803;48.130;13.788;2022-10-18T09:50:14;3.50;;;3.20;;
15408;SDS011;7803;48.130;13.788;2022-10-18T09:53:25;3.33;;;3.03;;
15408;SDS011;7803;48.130;13.788;2022-10-18T09:56:35;3.70;;;3.40;;
15408;SDS011;7803;48.130;13.788;2022-10-18T09:59:43;3.10;;;2.80;;
15408;SDS011;7803;48.130;13.788;2022-10-18T10:02:48;3.40;;;3.10;;
15408;SDS011;7803;48.130;13.788;2022-10-18T10:06:00;3.53;;;3.22;;
15408;SDS011;7803;48.130;13.788;2022-10-18T10:09:04;3.05;;;2.75;;
15408;SDS011;7803;48.130;13.788;2022-10-18T10:12:21;3.50;;;3.20;;
15408;SDS011;7803;48.130;13.788;2022-10-18T10:15:28;3.22;;;2.97;;
15408;SDS011;7803;48.130;13.788;2022-10-18T10:18:31;4.25;;;3.65;;
15408;SDS011;7803;48.130;13.788;2022-10-18T10:21:34;3.30;;;3.00;;
15408;SDS011;7803;48.130;13.788;2022-10-18T10:24:45;3.33;;;3.03;;
15408;SDS011;7803;48.130;13.788;2022-10-18T10:27:49;3.28;;;3.00;;
15408;SDS011;7803;48.130;13.788;2022-10-18T10:30:52;3.20;;;3.00;;
15408;SDS011;7803;48.130;13.788;2022-10-18T10:33:58;3.10;;;2.80;;
15408;SDS011;7803;48.130;13.788;2022-10-18T10:37:01;3.22;;;3.00;;
15408;SDS011;7803;48.130;13.788;2022-10-18T10:40:05;3.25;;;3.00;;
15408;SDS011;7803;48.130;13.788;2022-10-18T10:43:14;2.97;;;2.78;;
15408;SDS011;7803;48.130;13.788;2022-10-18T10:46:19;2.90;;;2.70;;
15408;SDS011;7803;48.130;13.788;2022-10-18T10:49:22;3.20;;;2.90;;
15408;SDS011;7803;48.130;13.788;2022-10-18T10:52:28;3.30;;;3.00;;
15408;SDS011;7803;48.130;13.788;2022-10-18T10:55:32;3.33;;;3.03;;
15408;SDS011;7803;48.130;13.788;2022-10-18T10:58:36;3.45;;;3.10;;
15408;SDS011;7803;48.130;13.788;2022-10-18T11:01:42;3.40;;;3.10;;
15408;SDS011;7803;48.130;13.788;2022-10-18T11:04:45;3.20;;;2.90;;
15408;SDS011;7803;48.130;13.788;2022-10-18T11:07:48;3.53;;;2.83;;
15408;SDS011;7803;48.130;13.788;2022-10-18T11:10:59;3.22;;;2.92;;
15408;SDS011;7803;48.130;13.788;2022-10-18T11:14:16;3.25;;;3.03;;
15408;SDS011;7803;48.130;13.788;2022-10-18T11:17:26;3.05;;;2.85;;
15408;SDS011;7803;48.130;13.788;2022-10-18T11:20:36;3.15;;;2.95;;
15408;SDS011;7803;48.130;13.788;2022-10-18T11:23:42;3.55;;;3.22;;
15408;SDS011;7803;48.130;13.788;2022-10-18T11:26:46;3.20;;;2.90;;
15408;SDS011;7803;48.130;13.788;2022-10-18T11:30:02;3.30;;;3.00;;
15408;SDS011;7803;48.130;13.788;2022-10-18T11:33:20;3.30;;;3.00;;
15408;SDS011;7803;48.130;13.788;2022-10-18T11:36:29;3.53;;;3.22;;
15408;SDS011;7803;48.130;13.788;2022-10-18T11:39:41;3.10;;;2.90;;
15408;SDS011;7803;48.130;13.788;2022-10-18T11:42:55;3.13;;;2.92;;
15408;SDS011;7803;48.130;13.788;2022-10-18T11:46:08;3.28;;;2.97;;
15408;SDS011;7803;48.130;13.788;2022-10-18T11:49:18;3.10;;;2.90;;
15408;SDS011;7803;48.130;13.788;2022-10-18T11:52:32;3.08;;;2.78;;
15408;SDS011;7803;48.130;13.788;2022-10-18T11:55:46;3.20;;;2.90;;
15408;SDS011;7803;48.130;13.788;2022-10-18T11:59:02;2.85;;;2.65;;
15408;SDS011;7803;48.130;13.788;2022-10-18T12:02:24;3.38;;;3.08;;
15408;SDS011;7803;48.130;13.788;2022-10-18T12:05:46;3.10;;;2.80;;
15408;SDS011;7803;48.130;13.788;2022-10-18T12:08:52;3.20;;;2.90;;
15408;SDS011;7803;48.130;13.788;2022-10-18T12:12:00;3.40;;;3.10;;
15408;SDS011;7803;48.130;13.788;2022-10-18T12:15:12;3.50;;;3.20;;
15408;SDS011;7803;48.130;13.788;2022-10-18T12:18:19;3.03;;;2.80;;
15408;SDS011;7803;48.130;13.788;2022-10-18T12:21:28;3.05;;;2.85;;
15408;SDS011;7803;48.130;13.788;2022-10-18T12:24:31;3.33;;;2.70;;
15408;SDS011;7803;48.130;13.788;2022-10-18T12:27:37;3.08;;;2.80;;
15408;SDS011;7803;48.130;13.788;2022-10-18T12:30:47;3.35;;;3.05;;
15408;SDS011;7803;48.130;13.788;2022-10-18T12:33:57;2.78;;;2.58;;
15408;SDS011;7803;48.130;13.788;2022-10-18T12:37:08;2.85;;;2.65;;
15408;SDS011;7803;48.130;13.788;2022-10-18T12:40:22;3.15;;;2.90;;
15408;SDS011;7803;48.130;13.788;2022-10-18T12:43:30;3.10;;;2.80;;
15408;SDS011;7803;48.130;13.788;2022-10-18T12:46:42;3.00;;;2.70;;
15408;SDS011;7803;48.130;13.788;2022-10-18T12:49:45;2.72;;;2.53;;
15408;SDS011;7803;48.130;13.788;2022-10-18T12:53:02;3.05;;;2.85;;
15408;SDS011;7803;48.130;13.788;2022-10-18T12:59:41;2.97;;;2.75;;
15408;SDS011;7803;48.130;13.788;2022-10-18T13:02:43;3.00;;;2.80;;
15408;SDS011;7803;48.130;13.788;2022-10-18T13:05:55;2.92;;;2.72;;
15408;SDS011;7803;48.130;13.788;2022-10-18T13:09:19;2.95;;;2.75;;
15408;SDS011;7803;48.130;13.788;2022-10-18T13:15:51;2.90;;;2.70;;
15408;SDS011;7803;48.130;13.788;2022-10-18T13:19:00;2.80;;;2.40;;
15408;SDS011;7803;48.130;13.788;2022-10-18T13:22:22;2.70;;;2.50;;
15408;SDS011;7803;48.130;13.788;2022-10-18T13:25:39;3.00;;;2.70;;
15408;SDS011;7803;48.130;13.788;2022-10-18T13:28:53;2.85;;;2.65;;
15408;SDS011;7803;48.130;13.788;2022-10-18T13:32:03;3.03;;;2.78;;
15408;SDS011;7803;48.130;13.788;2022-10-18T13:38:57;3.05;;;2.63;;
15408;SDS011;7803;48.130;13.788;2022-10-18T13:42:26;2.78;;;2.58;;
15408;SDS011;7803;48.130;13.788;2022-10-18T13:45:41;3.03;;;2.72;;
15408;SDS011;7803;48.130;13.788;2022-10-18T13:48:53;2.80;;;2.60;;
15408;SDS011;7803;48.130;13.788;2022-10-18T13:52:00;2.60;;;2.40;;
15408;SDS011;7803;48.130;13.788;2022-10-18T13:55:23;3.00;;;2.80;;
15408;SDS011;7803;48.130;13.788;2022-10-18T13:58:42;2.80;;;2.60;;
15408;SDS011;7803;48.130;13.788;2022-10-18T14:01:53;2.90;;;2.70;;
15408;SDS011;7803;48.130;13.788;2022-10-18T14:08:32;3.15;;;2.90;;
15408;SDS011;7803;48.130;13.788;2022-10-18T14:11:38;2.53;;;2.33;;
15408;SDS011;7803;48.130;13.788;2022-10-18T14:14:44;3.03;;;2.83;;
15408;SDS011;7803;48.130;13.788;2022-10-18T14:17:51;2.67;;;2.47;;
15408;SDS011;7803;48.130;13.788;2022-10-18T14:20:58;3.03;;;2.83;;
15408;SDS011;7803;48.130;13.788;2022-10-18T14:24:07;2.80;;;2.60;;
15408;SDS011;7803;48.130;13.788;2022-10-18T14:27:16;2.92;;;2.67;;
15408;SDS011;7803;48.130;13.788;2022-10-18T14:30:20;3.10;;;2.80;;
15408;SDS011;7803;48.130;13.788;2022-10-18T14:33:26;2.95;;;2.72;;
15408;SDS011;7803;48.130;13.788;2022-10-18T14:36:34;2.88;;;2.67;;
15408;SDS011;7803;48.130;13.788;2022-10-18T14:39:40;3.28;;;2.97;;
15408;SDS011;7803;48.130;13.788;2022-10-18T14:42:46;3.03;;;2.83;;
15408;SDS011;7803;48.130;13.788;2022-10-18T14:45:50;2.65;;;2.45;;
15408;SDS011;7803;48.130;13.788;2022-10-18T14:48:53;2.80;;;2.60;;
15408;SDS011;7803;48.130;13.788;2022-10-18T14:51:57;2.72;;;2.53;;
15408;SDS011;7803;48.130;13.788;2022-10-18T14:55:00;2.80;;;2.60;;
15408;SDS011;7803;48.130;13.788;2022-10-18T14:58:02;2.80;;;2.60;;
15408;SDS011;7803;48.130;13.788;2022-10-18T15:01:15;2.83;;;2.63;;
15408;SDS011;7803;48.130;13.788;2022-10-18T15:04:20;2.60;;;2.40;;
15408;SDS011;7803;48.130;13.788;2022-10-18T15:07:23;2.65;;;2.45;;
15408;SDS011;7803;48.130;13.788;2022-10-18T15:10:29;2.95;;;2.65;;
15408;SDS011;7803;48.130;13.788;2022-10-18T15:13:33;2.95;;;2.65;;
15408;SDS011;7803;48.130;13.788;2022-10-18T15:16:48;3.08;;;2.78;;
15408;SDS011;7803;48.130;13.788;2022-10-18T15:19:56;2.88;;;2.67;;
15408;SDS011;7803;48.130;13.788;2022-10-18T15:26:22;2.60;;;2.40;;
15408;SDS011;7803;48.130;13.788;2022-10-18T15:29:29;2.70;;;2.50;;
15408;SDS011;7803;48.130;13.788;2022-10-18T15:32:36;2.80;;;2.60;;
15408;SDS011;7803;48.130;13.788;2022-10-18T15:35:47;2.55;;;2.35;;
15408;SDS011;7803;48.130;13.788;2022-10-18T15:38:49;2.40;;;2.20;;
15408;SDS011;7803;48.130;13.788;2022-10-18T15:41:52;2.65;;;2.45;;
15408;SDS011;7803;48.130;13.788;2022-10-18T15:44:55;2.58;;;2.38;;
15408;SDS011;7803;48.130;13.788;2022-10-18T15:47:59;3.00;;;2.70;;
15408;SDS011;7803;48.130;13.788;2022-10-18T15:51:04;2.92;;;2.70;;
15408;SDS011;7803;48.130;13.788;2022-10-18T15:54:08;2.80;;;2.60;;
15408;SDS011;7803;48.130;13.788;2022-10-18T15:57:18;3.03;;;2.78;;
15408;SDS011;7803;48.130;13.788;2022-10-18T16:00:20;2.67;;;2.47;;
15408;SDS011;7803;48.130;13.788;2022-10-18T16:03:24;2.55;;;2.35;;
15408;SDS011;7803;48.130;13.788;2022-10-18T16:06:27;2.70;;;2.50;;
15408;SDS011;7803;48.130;13.788;2022-10-18T16:09:29;2.65;;;2.45;;
15408;SDS011;7803;48.130;13.788;2022-10-18T16:12:31;2.70;;;2.50;;
15408;SDS011;7803;48.130;13.788;2022-10-18T16:15:33;2.80;;;2.60;;
15408;SDS011;7803;48.130;13.788;2022-10-18T16:18:36;2.72;;;2.50;;
15408;SDS011;7803;48.130;13.788;2022-10-18T16:21:38;2.90;;;2.70;;
15408;SDS011;7803;48.130;13.788;2022-10-18T16:24:40;2.67;;;2.47;;
15408;SDS011;7803;48.130;13.788;2022-10-18T16:27:42;2.90;;;2.70;;
15408;SDS011;7803;48.130;13.788;2022-10-18T16:30:46;2.78;;;2.58;;
15408;SDS011;7803;48.130;13.788;2022-10-18T16:33:55;2.50;;;2.30;;
15408;SDS011;7803;48.130;13.788;2022-10-18T16:36:58;2.60;;;2.40;;
15408;SDS011;7803;48.130;13.788;2022-10-18T16:39:59;2.92;;;2.72;;
15408;SDS011;7803;48.130;13.788;2022-10-18T16:43:01;2.78;;;2.55;;
15408;SDS011;7803;48.130;13.788;2022-10-18T16:46:04;2.83;;;2.63;;
15408;SDS011;7803;48.130;13.788;2022-10-18T16:49:10;2.47;;;2.28;;
15408;SDS011;7803;48.130;13.788;2022-10-18T16:52:19;2.70;;;2.50;;
15408;SDS011;7803;48.130;13.788;2022-10-18T16:55:21;2.90;;;2.70;;
15408;SDS011;7803;48.130;13.788;2022-10-18T16:58:24;2.80;;;2.60;;
15408;SDS011;7803;48.130;13.788;2022-10-18T17:01:27;5.32;;;3.15;;
15408;SDS011;7803;48.130;13.788;2022-10-18T17:04:30;3.30;;;3.00;;
15408;SDS011;7803;48.130;13.788;2022-10-18T17:07:33;4.70;;;3.30;;
15408;SDS011;7803;48.130;13.788;2022-10-18T17:10:35;3.90;;;2.60;;
15408;SDS011;7803;48.130;13.788;2022-10-18T17:13:38;2.67;;;2.47;;
15408;SDS011;7803;48.130;13.788;2022-10-18T17:16:41;3.50;;;2.78;;
15408;SDS011;7803;48.130;13.788;2022-10-18T17:19:44;4.18;;;2.63;;
15408;SDS011;7803;48.130;13.788;2022-10-18T17:22:47;3.78;;;2.85;;
15408;SDS011;7803;48.130;13.788;2022-10-18T17:25:50;3.38;;;2.90;;
15408;SDS011;7803;48.130;13.788;2022-10-18T17:28:54;4.15;;;3.00;;
15408;SDS011;7803;48.130;13.788;2022-10-18T17:31:58;4.05;;;2.85;;
15408;SDS011;7803;48.130;13.788;2022-10-18T17:35:02;4.78;;;3.25;;
15408;SDS011;7803;48.130;13.788;2022-10-18T17:38:05;6.35;;;3.47;;
15408;SDS011;7803;48.130;13.788;2022-10-18T17:41:09;5.82;;;2.97;;
15408;SDS011;7803;48.130;13.788;2022-10-18T17:44:12;5.25;;;3.28;;
15408;SDS011;7803;48.130;13.788;2022-10-18T17:47:14;5.20;;;3.33;;
15408;SDS011;7803;48.130;13.788;2022-10-18T17:50:19;9.38;;;4.28;;
15408;SDS011;7803;48.130;13.788;2022-10-18T17:53:22;12.00;;;5.30;;
15408;SDS011;7803;48.130;13.788;2022-10-18T17:56:28;8.35;;;4.13;;
15408;SDS011;7803;48.130;13.788;2022-10-18T17:59:32;7.20;;;3.88;;
15408;SDS011;7803;48.130;13.788;2022-10-18T18:02:35;8.80;;;4.07;;
15408;SDS011;7803;48.130;13.788;2022-10-18T18:05:40;7.13;;;4.13;;
15408;SDS011;7803;48.130;13.788;2022-10-18T18:08:42;8.25;;;4.03;;
15408;SDS011;7803;48.130;13.788;2022-10-18T18:11:46;16.02;;;5.20;;
15408;SDS011;7803;48.130;13.788;2022-10-18T18:14:50;13.10;;;5.30;;
15408;SDS011;7803;48.130;13.788;2022-10-18T18:17:53;31.27;;;10.30;;
15408;SDS011;7803;48.130;13.788;2022-10-18T18:20:57;23.55;;;8.75;;
15408;SDS011;7803;48.130;13.788;2022-10-18T18:24:01;17.35;;;6.57;;
15408;SDS011;7803;48.130;13.788;2022-10-18T18:27:07;13.52;;;5.93;;
15408;SDS011;7803;48.130;13.788;2022-10-18T18:30:10;12.50;;;5.60;;
15408;SDS011;7803;48.130;13.788;2022-10-18T18:33:14;14.90;;;6.22;;
15408;SDS011;7803;48.130;13.788;2022-10-18T18:36:19;15.00;;;5.68;;
15408;SDS011;7803;48.130;13.788;2022-10-18T18:39:23;10.35;;;5.32;;
15408;SDS011;7803;48.130;13.788;2022-10-18T18:42:29;9.63;;;4.55;;
15408;SDS011;7803;48.130;13.788;2022-10-18T18:45:32;9.73;;;4.68;;
15408;SDS011;7803;48.130;13.788;2022-10-18T18:48:36;9.15;;;4.88;;
15408;SDS011;7803;48.130;13.788;2022-10-18T18:51:41;10.02;;;4.60;;
15408;SDS011;7803;48.130;13.788;2022-10-18T18:54:45;9.52;;;4.60;;
15408;SDS011;7803;48.130;13.788;2022-10-18T18:57:48;10.95;;;4.93;;
15408;SDS011;7803;48.130;13.788;2022-10-18T19:00:51;10.35;;;4.75;;